sensor_id;sensor_type;location;lat;lon;timestamp;P1;durP1;ratioP1;P2;durP2;ratioP2
65753;SDS011;52488;47.502;18.940;2022-10-22T00:00:36;10.75;;;5.68;;
65753;SDS011;52488;47.502;18.940;2022-10-22T00:01:39;10.90;;;5.75;;
65753;SDS011;52488;47.502;18.940;2022-10-22T00:02:42;8.63;;;5.65;;
65753;SDS011;52488;47.502;18.940;2022-10-22T00:03:46;14.27;;;5.60;;
65753;SDS011;52488;47.502;18.940;2022-10-22T00:04:49;18.70;;;5.45;;
65753;SDS011;52488;47.502;18.940;2022-10-22T00:05:53;10.98;;;5.30;;
65753;SDS011;52488;47.502;18.940;2022-10-22T00:06:55;11.07;;;5.57;;
65753;SDS011;52488;47.502;18.940;2022-10-22T00:07:58;8.13;;;5.22;;
65753;SDS011;52488;47.502;18.940;2022-10-22T00:09:01;8.35;;;5.25;;
65753;SDS011;52488;47.502;18.940;2022-10-22T00:10:05;10.38;;;5.60;;
65753;SDS011;52488;47.502;18.940;2022-10-22T00:11:10;13.18;;;5.80;;
65753;SDS011;52488;47.502;18.940;2022-10-22T00:12:15;11.40;;;5.68;;
65753;SDS011;52488;47.502;18.940;2022-10-22T00:13:19;8.00;;;5.43;;
65753;SDS011;52488;47.502;18.940;2022-10-22T00:14:22;15.40;;;5.53;;
65753;SDS011;52488;47.502;18.940;2022-10-22T00:15:25;10.10;;;5.50;;
65753;SDS011;52488;47.502;18.940;2022-10-22T00:16:28;9.75;;;5.37;;
65753;SDS011;52488;47.502;18.940;2022-10-22T00:17:31;10.48;;;5.37;;
65753;SDS011;52488;47.502;18.940;2022-10-22T00:18:34;11.65;;;6.07;;
65753;SDS011;52488;47.502;18.940;2022-10-22T00:19:37;11.12;;;5.20;;
65753;SDS011;52488;47.502;18.940;2022-10-22T00:20:41;10.25;;;5.62;;
65753;SDS011;52488;47.502;18.940;2022-10-22T00:21:44;13.40;;;5.50;;
65753;SDS011;52488;47.502;18.940;2022-10-22T00:22:48;8.55;;;5.30;;
65753;SDS011;52488;47.502;18.940;2022-10-22T00:23:51;8.45;;;5.32;;
65753;SDS011;52488;47.502;18.940;2022-10-22T00:24:54;12.52;;;5.68;;
65753;SDS011;52488;47.502;18.940;2022-10-22T00:25:57;8.88;;;4.93;;
65753;SDS011;52488;47.502;18.940;2022-10-22T00:27:00;7.72;;;5.37;;
65753;SDS011;52488;47.502;18.940;2022-10-22T00:28:03;10.95;;;5.72;;
65753;SDS011;52488;47.502;18.940;2022-10-22T00:29:06;10.07;;;5.53;;
65753;SDS011;52488;47.502;18.940;2022-10-22T00:30:09;10.88;;;5.78;;
65753;SDS011;52488;47.502;18.940;2022-10-22T00:31:13;10.95;;;5.53;;
65753;SDS011;52488;47.502;18.940;2022-10-22T00:32:17;9.23;;;5.43;;
65753;SDS011;52488;47.502;18.940;2022-10-22T00:33:20;10.38;;;5.60;;
65753;SDS011;52488;47.502;18.940;2022-10-22T00:34:23;9.30;;;5.57;;
65753;SDS011;52488;47.502;18.940;2022-10-22T00:35:26;10.05;;;5.28;;
65753;SDS011;52488;47.502;18.940;2022-10-22T00:36:29;6.75;;;4.95;;
65753;SDS011;52488;47.502;18.940;2022-10-22T00:37:32;8.20;;;5.10;;
65753;SDS011;52488;47.502;18.940;2022-10-22T00:38:35;10.90;;;6.18;;
65753;SDS011;52488;47.502;18.940;2022-10-22T00:39:38;10.63;;;5.10;;
65753;SDS011;52488;47.502;18.940;2022-10-22T00:40:41;13.48;;;5.65;;
65753;SDS011;52488;47.502;18.940;2022-10-22T00:41:44;8.70;;;5.50;;
65753;SDS011;52488;47.502;18.940;2022-10-22T00:42:49;9.10;;;5.45;;
65753;SDS011;52488;47.502;18.940;2022-10-22T00:43:53;8.15;;;5.32;;
65753;SDS011;52488;47.502;18.940;2022-10-22T00:45:03;8.27;;;5.30;;
65753;SDS011;52488;47.502;18.940;2022-10-22T00:46:15;11.30;;;5.43;;
65753;SDS011;52488;47.502;18.940;2022-10-22T00:47:18;10.07;;;4.85;;
65753;SDS011;52488;47.502;18.940;2022-10-22T00:48:24;9.77;;;4.90;;
65753;SDS011;52488;47.502;18.940;2022-10-22T00:49:29;11.05;;;5.18;;
65753;SDS011;52488;47.502;18.940;2022-10-22T00:50:46;8.15;;;4.90;;
65753;SDS011;52488;47.502;18.940;2022-10-22T00:51:50;12.00;;;5.65;;
65753;SDS011;52488;47.502;18.940;2022-10-22T00:52:53;11.20;;;4.80;;
65753;SDS011;52488;47.502;18.940;2022-10-22T00:53:59;8.18;;;4.82;;
65753;SDS011;52488;47.502;18.940;2022-10-22T00:55:06;12.25;;;5.25;;
65753;SDS011;52488;47.502;18.940;2022-10-22T00:56:09;10.10;;;6.30;;
65753;SDS011;52488;47.502;18.940;2022-10-22T00:57:13;8.35;;;4.95;;
65753;SDS011;52488;47.502;18.940;2022-10-22T00:58:19;9.77;;;5.20;;
65753;SDS011;52488;47.502;18.940;2022-10-22T00:59:27;9.52;;;5.30;;
65753;SDS011;52488;47.502;18.940;2022-10-22T01:00:31;8.18;;;5.00;;
65753;SDS011;52488;47.502;18.940;2022-10-22T01:01:34;11.25;;;5.20;;
65753;SDS011;52488;47.502;18.940;2022-10-22T01:02:37;7.82;;;5.07;;
65753;SDS011;52488;47.502;18.940;2022-10-22T01:03:40;8.25;;;4.45;;
65753;SDS011;52488;47.502;18.940;2022-10-22T01:04:44;12.00;;;5.53;;
65753;SDS011;52488;47.502;18.940;2022-10-22T01:05:53;9.30;;;5.40;;
65753;SDS011;52488;47.502;18.940;2022-10-22T01:06:59;8.88;;;4.80;;
65753;SDS011;52488;47.502;18.940;2022-10-22T01:08:02;9.38;;;5.32;;
65753;SDS011;52488;47.502;18.940;2022-10-22T01:13:11;7.82;;;4.93;;
65753;SDS011;52488;47.502;18.940;2022-10-22T01:14:40;9.43;;;5.18;;
65753;SDS011;52488;47.502;18.940;2022-10-22T01:15:55;7.53;;;4.78;;
65753;SDS011;52488;47.502;18.940;2022-10-22T01:18:20;9.50;;;5.00;;
65753;SDS011;52488;47.502;18.940;2022-10-22T01:23:17;12.27;;;5.30;;
65753;SDS011;52488;47.502;18.940;2022-10-22T01:26:20;8.10;;;4.75;;
65753;SDS011;52488;47.502;18.940;2022-10-22T01:27:31;8.00;;;4.78;;
65753;SDS011;52488;47.502;18.940;2022-10-22T01:28:59;13.50;;;5.30;;
65753;SDS011;52488;47.502;18.940;2022-10-22T01:30:11;12.85;;;5.72;;
65753;SDS011;52488;47.502;18.940;2022-10-22T01:31:16;9.52;;;5.53;;
65753;SDS011;52488;47.502;18.940;2022-10-22T01:32:22;11.00;;;6.07;;
65753;SDS011;52488;47.502;18.940;2022-10-22T01:33:27;9.25;;;5.45;;
65753;SDS011;52488;47.502;18.940;2022-10-22T01:34:32;11.25;;;5.60;;
65753;SDS011;52488;47.502;18.940;2022-10-22T01:35:37;10.43;;;5.68;;
65753;SDS011;52488;47.502;18.940;2022-10-22T01:36:43;11.57;;;5.30;;
65753;SDS011;52488;47.502;18.940;2022-10-22T01:37:50;11.48;;;5.97;;
65753;SDS011;52488;47.502;18.940;2022-10-22T01:38:57;8.38;;;5.55;;
65753;SDS011;52488;47.502;18.940;2022-10-22T01:40:03;10.13;;;5.70;;
65753;SDS011;52488;47.502;18.940;2022-10-22T01:41:07;10.70;;;5.70;;
65753;SDS011;52488;47.502;18.940;2022-10-22T01:42:12;12.00;;;5.85;;
65753;SDS011;52488;47.502;18.940;2022-10-22T01:43:16;8.95;;;5.37;;
65753;SDS011;52488;47.502;18.940;2022-10-22T01:44:26;12.37;;;6.12;;
65753;SDS011;52488;47.502;18.940;2022-10-22T01:45:35;9.18;;;5.12;;
65753;SDS011;52488;47.502;18.940;2022-10-22T01:46:41;12.07;;;5.47;;
65753;SDS011;52488;47.502;18.940;2022-10-22T01:51:41;10.45;;;5.68;;
65753;SDS011;52488;47.502;18.940;2022-10-22T01:58:16;8.82;;;5.80;;
65753;SDS011;52488;47.502;18.940;2022-10-22T01:59:29;8.55;;;5.70;;
65753;SDS011;52488;47.502;18.940;2022-10-22T02:01:00;10.75;;;6.00;;
65753;SDS011;52488;47.502;18.940;2022-10-22T02:02:17;8.10;;;5.78;;
65753;SDS011;52488;47.502;18.940;2022-10-22T02:03:52;15.88;;;5.95;;
65753;SDS011;52488;47.502;18.940;2022-10-22T02:05:01;9.23;;;5.90;;
65753;SDS011;52488;47.502;18.940;2022-10-22T02:06:25;13.30;;;5.93;;
65753;SDS011;52488;47.502;18.940;2022-10-22T02:07:32;12.90;;;6.03;;
65753;SDS011;52488;47.502;18.940;2022-10-22T02:08:39;13.30;;;6.97;;
65753;SDS011;52488;47.502;18.940;2022-10-22T02:09:43;14.77;;;6.37;;
65753;SDS011;52488;47.502;18.940;2022-10-22T02:10:47;11.35;;;6.03;;
65753;SDS011;52488;47.502;18.940;2022-10-22T02:11:52;11.20;;;6.25;;
65753;SDS011;52488;47.502;18.940;2022-10-22T02:12:57;16.58;;;6.12;;
65753;SDS011;52488;47.502;18.940;2022-10-22T02:14:02;15.25;;;6.20;;
65753;SDS011;52488;47.502;18.940;2022-10-22T02:15:09;12.40;;;6.18;;
65753;SDS011;52488;47.502;18.940;2022-10-22T02:16:17;14.77;;;6.20;;
65753;SDS011;52488;47.502;18.940;2022-10-22T02:17:24;11.05;;;6.12;;
65753;SDS011;52488;47.502;18.940;2022-10-22T02:18:30;14.35;;;6.30;;
65753;SDS011;52488;47.502;18.940;2022-10-22T02:20:50;9.88;;;6.30;;
65753;SDS011;52488;47.502;18.940;2022-10-22T02:21:54;10.82;;;6.00;;
65753;SDS011;52488;47.502;18.940;2022-10-22T02:22:57;12.82;;;6.22;;
65753;SDS011;52488;47.502;18.940;2022-10-22T02:24:01;10.73;;;6.35;;
65753;SDS011;52488;47.502;18.940;2022-10-22T02:25:04;9.43;;;5.68;;
65753;SDS011;52488;47.502;18.940;2022-10-22T02:26:30;10.40;;;6.25;;
65753;SDS011;52488;47.502;18.940;2022-10-22T02:27:42;11.90;;;6.18;;
65753;SDS011;52488;47.502;18.940;2022-10-22T02:30:05;12.00;;;5.53;;
65753;SDS011;52488;47.502;18.940;2022-10-22T02:31:12;8.88;;;5.75;;
65753;SDS011;52488;47.502;18.940;2022-10-22T02:32:19;9.48;;;5.45;;
65753;SDS011;52488;47.502;18.940;2022-10-22T02:33:29;9.90;;;5.95;;
65753;SDS011;52488;47.502;18.940;2022-10-22T02:34:35;10.20;;;5.28;;
65753;SDS011;52488;47.502;18.940;2022-10-22T02:35:38;11.55;;;5.53;;
65753;SDS011;52488;47.502;18.940;2022-10-22T02:36:43;10.32;;;5.25;;
65753;SDS011;52488;47.502;18.940;2022-10-22T02:37:52;8.23;;;5.20;;
65753;SDS011;52488;47.502;18.940;2022-10-22T02:38:58;7.82;;;5.10;;
65753;SDS011;52488;47.502;18.940;2022-10-22T02:40:02;7.68;;;5.32;;
65753;SDS011;52488;47.502;18.940;2022-10-22T02:41:05;10.05;;;5.45;;
65753;SDS011;52488;47.502;18.940;2022-10-22T02:42:08;9.73;;;5.15;;
65753;SDS011;52488;47.502;18.940;2022-10-22T02:43:13;10.48;;;5.20;;
65753;SDS011;52488;47.502;18.940;2022-10-22T02:44:18;10.88;;;5.55;;
65753;SDS011;52488;47.502;18.940;2022-10-22T02:45:22;12.82;;;5.75;;
65753;SDS011;52488;47.502;18.940;2022-10-22T02:46:29;11.52;;;5.93;;
65753;SDS011;52488;47.502;18.940;2022-10-22T02:47:32;9.05;;;5.40;;
65753;SDS011;52488;47.502;18.940;2022-10-22T02:48:35;10.80;;;6.00;;
65753;SDS011;52488;47.502;18.940;2022-10-22T02:49:38;9.75;;;5.93;;
65753;SDS011;52488;47.502;18.940;2022-10-22T02:50:41;9.63;;;5.22;;
65753;SDS011;52488;47.502;18.940;2022-10-22T02:51:44;11.10;;;5.10;;
65753;SDS011;52488;47.502;18.940;2022-10-22T02:52:47;10.43;;;6.00;;
65753;SDS011;52488;47.502;18.940;2022-10-22T02:53:50;7.87;;;5.68;;
65753;SDS011;52488;47.502;18.940;2022-10-22T02:54:53;10.30;;;6.03;;
65753;SDS011;52488;47.502;18.940;2022-10-22T02:55:56;6.35;;;4.47;;
65753;SDS011;52488;47.502;18.940;2022-10-22T02:56:59;9.20;;;5.10;;
65753;SDS011;52488;47.502;18.940;2022-10-22T02:58:06;8.60;;;4.95;;
65753;SDS011;52488;47.502;18.940;2022-10-22T02:59:09;10.65;;;5.32;;
65753;SDS011;52488;47.502;18.940;2022-10-22T03:00:13;10.43;;;6.03;;
65753;SDS011;52488;47.502;18.940;2022-10-22T03:01:16;9.77;;;5.65;;
65753;SDS011;52488;47.502;18.940;2022-10-22T03:02:19;7.43;;;4.95;;
65753;SDS011;52488;47.502;18.940;2022-10-22T03:03:22;10.07;;;5.03;;
65753;SDS011;52488;47.502;18.940;2022-10-22T03:04:25;11.65;;;6.20;;
65753;SDS011;52488;47.502;18.940;2022-10-22T03:05:28;11.00;;;6.18;;
65753;SDS011;52488;47.502;18.940;2022-10-22T03:06:30;9.20;;;5.47;;
65753;SDS011;52488;47.502;18.940;2022-10-22T03:07:33;9.65;;;5.28;;
65753;SDS011;52488;47.502;18.940;2022-10-22T03:08:36;13.43;;;5.90;;
65753;SDS011;52488;47.502;18.940;2022-10-22T03:09:39;8.75;;;5.30;;
65753;SDS011;52488;47.502;18.940;2022-10-22T03:10:42;7.78;;;5.10;;
65753;SDS011;52488;47.502;18.940;2022-10-22T03:11:45;11.85;;;5.57;;
65753;SDS011;52488;47.502;18.940;2022-10-22T03:12:48;11.27;;;5.60;;
65753;SDS011;52488;47.502;18.940;2022-10-22T03:13:51;11.10;;;5.12;;
65753;SDS011;52488;47.502;18.940;2022-10-22T03:14:54;9.43;;;5.15;;
65753;SDS011;52488;47.502;18.940;2022-10-22T03:15:57;12.27;;;5.72;;
65753;SDS011;52488;47.502;18.940;2022-10-22T03:17:00;8.45;;;5.30;;
65753;SDS011;52488;47.502;18.940;2022-10-22T03:18:03;8.15;;;5.18;;
65753;SDS011;52488;47.502;18.940;2022-10-22T03:19:07;10.25;;;5.80;;
65753;SDS011;52488;47.502;18.940;2022-10-22T03:20:09;8.93;;;5.93;;
65753;SDS011;52488;47.502;18.940;2022-10-22T03:21:18;7.47;;;5.65;;
65753;SDS011;52488;47.502;18.940;2022-10-22T03:22:29;7.85;;;5.28;;
65753;SDS011;52488;47.502;18.940;2022-10-22T03:23:36;13.38;;;5.85;;
65753;SDS011;52488;47.502;18.940;2022-10-22T03:24:40;9.65;;;5.35;;
65753;SDS011;52488;47.502;18.940;2022-10-22T03:25:47;11.18;;;5.95;;
65753;SDS011;52488;47.502;18.940;2022-10-22T03:26:51;12.88;;;5.97;;
65753;SDS011;52488;47.502;18.940;2022-10-22T03:27:54;8.35;;;5.40;;
65753;SDS011;52488;47.502;18.940;2022-10-22T03:29:01;10.57;;;5.75;;
65753;SDS011;52488;47.502;18.940;2022-10-22T03:30:05;11.18;;;5.37;;
65753;SDS011;52488;47.502;18.940;2022-10-22T03:31:09;9.73;;;5.87;;
65753;SDS011;52488;47.502;18.940;2022-10-22T03:32:12;10.77;;;6.53;;
65753;SDS011;52488;47.502;18.940;2022-10-22T03:33:15;11.68;;;5.85;;
65753;SDS011;52488;47.502;18.940;2022-10-22T03:34:18;12.95;;;6.53;;
65753;SDS011;52488;47.502;18.940;2022-10-22T03:35:21;10.43;;;6.62;;
65753;SDS011;52488;47.502;18.940;2022-10-22T03:36:24;9.70;;;6.80;;
65753;SDS011;52488;47.502;18.940;2022-10-22T03:37:27;12.25;;;7.93;;
65753;SDS011;52488;47.502;18.940;2022-10-22T03:38:30;12.27;;;8.50;;
65753;SDS011;52488;47.502;18.940;2022-10-22T03:39:34;9.82;;;6.82;;
65753;SDS011;52488;47.502;18.940;2022-10-22T03:40:38;13.27;;;6.90;;
65753;SDS011;52488;47.502;18.940;2022-10-22T03:41:43;13.45;;;7.20;;
65753;SDS011;52488;47.502;18.940;2022-10-22T03:42:46;11.48;;;7.22;;
65753;SDS011;52488;47.502;18.940;2022-10-22T03:43:49;12.75;;;6.70;;
65753;SDS011;52488;47.502;18.940;2022-10-22T03:44:54;11.25;;;6.35;;
65753;SDS011;52488;47.502;18.940;2022-10-22T03:45:57;11.23;;;5.80;;
65753;SDS011;52488;47.502;18.940;2022-10-22T03:47:00;11.70;;;6.00;;
65753;SDS011;52488;47.502;18.940;2022-10-22T03:48:04;9.60;;;5.68;;
65753;SDS011;52488;47.502;18.940;2022-10-22T03:49:07;9.57;;;5.95;;
65753;SDS011;52488;47.502;18.940;2022-10-22T03:50:10;13.73;;;6.20;;
65753;SDS011;52488;47.502;18.940;2022-10-22T03:51:13;7.32;;;4.93;;
65753;SDS011;52488;47.502;18.940;2022-10-22T03:52:16;10.70;;;5.93;;
65753;SDS011;52488;47.502;18.940;2022-10-22T03:53:19;10.18;;;5.25;;
65753;SDS011;52488;47.502;18.940;2022-10-22T03:54:26;11.32;;;5.53;;
65753;SDS011;52488;47.502;18.940;2022-10-22T03:55:29;9.43;;;5.22;;
65753;SDS011;52488;47.502;18.940;2022-10-22T03:56:32;8.63;;;5.62;;
65753;SDS011;52488;47.502;18.940;2022-10-22T03:57:35;10.82;;;5.60;;
65753;SDS011;52488;47.502;18.940;2022-10-22T03:58:39;12.60;;;6.43;;
65753;SDS011;52488;47.502;18.940;2022-10-22T03:59:43;9.07;;;6.25;;
65753;SDS011;52488;47.502;18.940;2022-10-22T04:00:47;13.02;;;6.22;;
65753;SDS011;52488;47.502;18.940;2022-10-22T04:01:50;9.38;;;5.70;;
65753;SDS011;52488;47.502;18.940;2022-10-22T04:02:53;10.20;;;6.28;;
65753;SDS011;52488;47.502;18.940;2022-10-22T04:03:56;11.68;;;6.18;;
65753;SDS011;52488;47.502;18.940;2022-10-22T04:04:59;11.55;;;5.85;;
65753;SDS011;52488;47.502;18.940;2022-10-22T04:06:03;12.35;;;6.18;;
65753;SDS011;52488;47.502;18.940;2022-10-22T04:07:11;9.02;;;5.85;;
65753;SDS011;52488;47.502;18.940;2022-10-22T04:08:14;9.43;;;5.90;;
65753;SDS011;52488;47.502;18.940;2022-10-22T04:09:17;11.25;;;6.80;;
65753;SDS011;52488;47.502;18.940;2022-10-22T04:10:20;11.35;;;6.10;;
65753;SDS011;52488;47.502;18.940;2022-10-22T04:11:22;12.75;;;6.53;;
65753;SDS011;52488;47.502;18.940;2022-10-22T04:12:25;10.35;;;6.18;;
65753;SDS011;52488;47.502;18.940;2022-10-22T04:13:28;11.85;;;6.60;;
65753;SDS011;52488;47.502;18.940;2022-10-22T04:14:31;9.70;;;6.03;;
65753;SDS011;52488;47.502;18.940;2022-10-22T04:15:35;12.07;;;6.40;;
65753;SDS011;52488;47.502;18.940;2022-10-22T04:16:38;9.77;;;6.20;;
65753;SDS011;52488;47.502;18.940;2022-10-22T04:17:42;11.20;;;6.50;;
65753;SDS011;52488;47.502;18.940;2022-10-22T04:18:46;24.35;;;11.20;;
65753;SDS011;52488;47.502;18.940;2022-10-22T04:19:50;13.88;;;8.32;;
65753;SDS011;52488;47.502;18.940;2022-10-22T04:20:52;20.42;;;9.07;;
65753;SDS011;52488;47.502;18.940;2022-10-22T04:21:58;22.92;;;10.48;;
65753;SDS011;52488;47.502;18.940;2022-10-22T04:23:02;25.98;;;10.57;;
65753;SDS011;52488;47.502;18.940;2022-10-22T04:24:04;17.62;;;9.52;;
65753;SDS011;52488;47.502;18.940;2022-10-22T04:25:11;16.52;;;7.93;;
65753;SDS011;52488;47.502;18.940;2022-10-22T04:26:14;13.05;;;7.25;;
65753;SDS011;52488;47.502;18.940;2022-10-22T04:27:18;10.48;;;6.35;;
65753;SDS011;52488;47.502;18.940;2022-10-22T04:28:22;8.65;;;6.00;;
65753;SDS011;52488;47.502;18.940;2022-10-22T04:29:24;11.90;;;6.32;;
65753;SDS011;52488;47.502;18.940;2022-10-22T04:30:27;11.60;;;6.00;;
65753;SDS011;52488;47.502;18.940;2022-10-22T04:31:30;11.25;;;5.87;;
65753;SDS011;52488;47.502;18.940;2022-10-22T04:32:33;13.82;;;6.43;;
65753;SDS011;52488;47.502;18.940;2022-10-22T04:33:36;12.82;;;6.40;;
65753;SDS011;52488;47.502;18.940;2022-10-22T04:34:39;13.85;;;6.97;;
65753;SDS011;52488;47.502;18.940;2022-10-22T04:35:42;13.38;;;7.85;;
65753;SDS011;52488;47.502;18.940;2022-10-22T04:36:45;26.33;;;12.45;;
65753;SDS011;52488;47.502;18.940;2022-10-22T04:37:48;18.77;;;10.23;;
65753;SDS011;52488;47.502;18.940;2022-10-22T04:38:52;17.15;;;8.70;;
65753;SDS011;52488;47.502;18.940;2022-10-22T04:39:57;20.45;;;9.05;;
65753;SDS011;52488;47.502;18.940;2022-10-22T04:41:13;15.05;;;8.15;;
65753;SDS011;52488;47.502;18.940;2022-10-22T04:42:18;15.63;;;8.00;;
65753;SDS011;52488;47.502;18.940;2022-10-22T04:43:20;22.35;;;10.40;;
65753;SDS011;52488;47.502;18.940;2022-10-22T04:44:23;22.42;;;11.57;;
65753;SDS011;52488;47.502;18.940;2022-10-22T04:45:31;20.92;;;10.35;;
65753;SDS011;52488;47.502;18.940;2022-10-22T04:46:35;22.02;;;12.65;;
65753;SDS011;52488;47.502;18.940;2022-10-22T04:47:38;29.50;;;14.00;;
65753;SDS011;52488;47.502;18.940;2022-10-22T04:48:42;24.87;;;13.20;;
65753;SDS011;52488;47.502;18.940;2022-10-22T04:49:46;27.13;;;13.88;;
65753;SDS011;52488;47.502;18.940;2022-10-22T04:50:49;22.87;;;12.98;;
65753;SDS011;52488;47.502;18.940;2022-10-22T04:51:52;23.60;;;12.50;;
65753;SDS011;52488;47.502;18.940;2022-10-22T04:52:58;21.67;;;11.88;;
65753;SDS011;52488;47.502;18.940;2022-10-22T04:54:01;21.98;;;9.85;;
65753;SDS011;52488;47.502;18.940;2022-10-22T04:55:07;22.02;;;10.90;;
65753;SDS011;52488;47.502;18.940;2022-10-22T04:56:19;15.80;;;8.05;;
65753;SDS011;52488;47.502;18.940;2022-10-22T04:57:23;10.73;;;6.50;;
65753;SDS011;52488;47.502;18.940;2022-10-22T04:58:26;11.32;;;6.47;;
65753;SDS011;52488;47.502;18.940;2022-10-22T04:59:28;12.48;;;5.97;;
65753;SDS011;52488;47.502;18.940;2022-10-22T05:00:31;17.37;;;7.35;;
65753;SDS011;52488;47.502;18.940;2022-10-22T05:01:35;11.32;;;5.97;;
65753;SDS011;52488;47.502;18.940;2022-10-22T05:02:47;9.70;;;6.65;;
65753;SDS011;52488;47.502;18.940;2022-10-22T05:03:53;11.90;;;6.72;;
65753;SDS011;52488;47.502;18.940;2022-10-22T05:04:57;11.60;;;6.28;;
65753;SDS011;52488;47.502;18.940;2022-10-22T05:06:00;10.57;;;6.15;;
65753;SDS011;52488;47.502;18.940;2022-10-22T05:07:03;13.48;;;6.50;;
65753;SDS011;52488;47.502;18.940;2022-10-22T05:08:06;13.15;;;6.85;;
65753;SDS011;52488;47.502;18.940;2022-10-22T05:09:13;11.88;;;6.72;;
65753;SDS011;52488;47.502;18.940;2022-10-22T05:10:18;16.45;;;7.03;;
65753;SDS011;52488;47.502;18.940;2022-10-22T05:11:25;12.00;;;6.82;;
65753;SDS011;52488;47.502;18.940;2022-10-22T05:12:30;11.50;;;6.37;;
65753;SDS011;52488;47.502;18.940;2022-10-22T05:13:33;12.37;;;6.62;;
65753;SDS011;52488;47.502;18.940;2022-10-22T05:14:36;10.25;;;6.80;;
65753;SDS011;52488;47.502;18.940;2022-10-22T05:15:47;12.32;;;6.37;;
65753;SDS011;52488;47.502;18.940;2022-10-22T05:16:50;14.10;;;6.60;;
65753;SDS011;52488;47.502;18.940;2022-10-22T05:17:53;9.82;;;6.03;;
65753;SDS011;52488;47.502;18.940;2022-10-22T05:18:57;14.30;;;7.47;;
65753;SDS011;52488;47.502;18.940;2022-10-22T05:20:03;11.85;;;6.78;;
65753;SDS011;52488;47.502;18.940;2022-10-22T05:21:07;12.30;;;6.72;;
65753;SDS011;52488;47.502;18.940;2022-10-22T05:22:16;18.50;;;7.47;;
65753;SDS011;52488;47.502;18.940;2022-10-22T05:23:19;15.50;;;6.65;;
65753;SDS011;52488;47.502;18.940;2022-10-22T05:24:22;11.38;;;6.12;;
65753;SDS011;52488;47.502;18.940;2022-10-22T05:25:25;13.35;;;6.57;;
65753;SDS011;52488;47.502;18.940;2022-10-22T05:26:28;11.20;;;6.57;;
65753;SDS011;52488;47.502;18.940;2022-10-22T05:27:31;9.40;;;5.70;;
65753;SDS011;52488;47.502;18.940;2022-10-22T05:28:34;14.38;;;6.37;;
65753;SDS011;52488;47.502;18.940;2022-10-22T05:29:37;10.82;;;6.20;;
65753;SDS011;52488;47.502;18.940;2022-10-22T05:30:40;14.10;;;5.95;;
65753;SDS011;52488;47.502;18.940;2022-10-22T05:31:43;9.98;;;6.05;;
65753;SDS011;52488;47.502;18.940;2022-10-22T05:32:45;12.30;;;5.90;;
65753;SDS011;52488;47.502;18.940;2022-10-22T05:33:48;11.68;;;6.60;;
65753;SDS011;52488;47.502;18.940;2022-10-22T05:34:51;10.40;;;6.10;;
65753;SDS011;52488;47.502;18.940;2022-10-22T05:35:54;9.90;;;5.95;;
65753;SDS011;52488;47.502;18.940;2022-10-22T05:37:00;16.23;;;7.40;;
65753;SDS011;52488;47.502;18.940;2022-10-22T05:38:03;12.93;;;6.68;;
65753;SDS011;52488;47.502;18.940;2022-10-22T05:39:06;15.15;;;6.82;;
65753;SDS011;52488;47.502;18.940;2022-10-22T05:40:09;12.45;;;6.62;;
65753;SDS011;52488;47.502;18.940;2022-10-22T05:41:27;17.33;;;5.72;;
65753;SDS011;52488;47.502;18.940;2022-10-22T05:42:31;12.85;;;5.97;;
65753;SDS011;52488;47.502;18.940;2022-10-22T05:43:34;12.93;;;6.78;;
65753;SDS011;52488;47.502;18.940;2022-10-22T05:44:38;23.10;;;6.75;;
65753;SDS011;52488;47.502;18.940;2022-10-22T05:45:42;17.50;;;6.68;;
65753;SDS011;52488;47.502;18.940;2022-10-22T05:46:44;14.10;;;6.18;;
65753;SDS011;52488;47.502;18.940;2022-10-22T05:47:47;13.95;;;6.12;;
65753;SDS011;52488;47.502;18.940;2022-10-22T05:48:51;14.60;;;5.90;;
65753;SDS011;52488;47.502;18.940;2022-10-22T05:49:55;11.88;;;5.60;;
65753;SDS011;52488;47.502;18.940;2022-10-22T05:51:02;11.77;;;5.70;;
65753;SDS011;52488;47.502;18.940;2022-10-22T05:52:06;10.80;;;6.00;;
65753;SDS011;52488;47.502;18.940;2022-10-22T05:53:09;15.57;;;6.03;;
65753;SDS011;52488;47.502;18.940;2022-10-22T05:54:17;11.20;;;5.65;;
65753;SDS011;52488;47.502;18.940;2022-10-22T05:55:22;11.75;;;6.18;;
65753;SDS011;52488;47.502;18.940;2022-10-22T05:56:25;11.32;;;6.45;;
65753;SDS011;52488;47.502;18.940;2022-10-22T05:57:29;14.77;;;6.18;;
65753;SDS011;52488;47.502;18.940;2022-10-22T05:58:33;9.85;;;5.70;;
65753;SDS011;52488;47.502;18.940;2022-10-22T05:59:36;9.45;;;5.68;;
65753;SDS011;52488;47.502;18.940;2022-10-22T06:00:39;12.30;;;6.53;;
65753;SDS011;52488;47.502;18.940;2022-10-22T06:01:42;10.05;;;6.40;;
65753;SDS011;52488;47.502;18.940;2022-10-22T06:02:49;9.40;;;6.28;;
65753;SDS011;52488;47.502;18.940;2022-10-22T06:03:53;9.13;;;6.37;;
65753;SDS011;52488;47.502;18.940;2022-10-22T06:04:58;12.15;;;5.87;;
65753;SDS011;52488;47.502;18.940;2022-10-22T06:06:14;10.98;;;6.43;;
65753;SDS011;52488;47.502;18.940;2022-10-22T06:07:29;10.20;;;5.82;;
65753;SDS011;52488;47.502;18.940;2022-10-22T06:08:32;10.68;;;6.20;;
65753;SDS011;52488;47.502;18.940;2022-10-22T06:09:38;10.52;;;5.85;;
65753;SDS011;52488;47.502;18.940;2022-10-22T06:10:41;19.05;;;6.20;;
65753;SDS011;52488;47.502;18.940;2022-10-22T06:11:46;11.80;;;6.10;;
65753;SDS011;52488;47.502;18.940;2022-10-22T06:12:49;11.40;;;5.55;;
65753;SDS011;52488;47.502;18.940;2022-10-22T06:13:52;13.52;;;7.07;;
65753;SDS011;52488;47.502;18.940;2022-10-22T06:14:55;12.40;;;5.90;;
65753;SDS011;52488;47.502;18.940;2022-10-22T06:16:01;10.18;;;6.68;;
65753;SDS011;52488;47.502;18.940;2022-10-22T06:17:04;10.90;;;6.43;;
65753;SDS011;52488;47.502;18.940;2022-10-22T06:18:07;11.88;;;7.18;;
65753;SDS011;52488;47.502;18.940;2022-10-22T06:19:11;14.25;;;7.50;;
65753;SDS011;52488;47.502;18.940;2022-10-22T06:20:15;11.48;;;7.45;;
65753;SDS011;52488;47.502;18.940;2022-10-22T06:21:18;13.50;;;7.20;;
65753;SDS011;52488;47.502;18.940;2022-10-22T06:22:21;15.00;;;8.23;;
65753;SDS011;52488;47.502;18.940;2022-10-22T06:23:24;12.30;;;7.85;;
65753;SDS011;52488;47.502;18.940;2022-10-22T06:24:27;15.95;;;8.80;;
65753;SDS011;52488;47.502;18.940;2022-10-22T06:25:31;16.67;;;9.07;;
65753;SDS011;52488;47.502;18.940;2022-10-22T06:26:33;16.40;;;9.32;;
65753;SDS011;52488;47.502;18.940;2022-10-22T06:27:36;18.58;;;9.05;;
65753;SDS011;52488;47.502;18.940;2022-10-22T06:28:41;13.35;;;8.00;;
65753;SDS011;52488;47.502;18.940;2022-10-22T06:29:44;16.37;;;8.13;;
65753;SDS011;52488;47.502;18.940;2022-10-22T06:30:47;15.98;;;8.45;;
65753;SDS011;52488;47.502;18.940;2022-10-22T06:31:49;14.07;;;7.95;;
65753;SDS011;52488;47.502;18.940;2022-10-22T06:32:56;17.27;;;7.85;;
65753;SDS011;52488;47.502;18.940;2022-10-22T06:33:59;17.95;;;8.65;;
65753;SDS011;52488;47.502;18.940;2022-10-22T06:35:02;17.10;;;9.00;;
65753;SDS011;52488;47.502;18.940;2022-10-22T06:36:06;14.93;;;8.90;;
65753;SDS011;52488;47.502;18.940;2022-10-22T06:37:10;15.80;;;8.93;;
65753;SDS011;52488;47.502;18.940;2022-10-22T06:38:15;16.85;;;8.75;;
65753;SDS011;52488;47.502;18.940;2022-10-22T06:39:18;19.48;;;9.73;;
65753;SDS011;52488;47.502;18.940;2022-10-22T06:40:24;20.42;;;10.98;;
65753;SDS011;52488;47.502;18.940;2022-10-22T06:41:27;18.25;;;10.02;;
65753;SDS011;52488;47.502;18.940;2022-10-22T06:42:30;15.65;;;9.43;;
65753;SDS011;52488;47.502;18.940;2022-10-22T06:43:37;17.20;;;9.07;;